Terminal Aerodrome Forecast
Issued by NWS

Home | Current Version | Previous Version | Text Only | Print | Product List | Glossary On
Versions: 1 2 3 4 5 6 7 8 9 10 11 12 13 14 15 16 17 18 19 20 21 22 23 24 25 26 27 28 29 30 31 32
905
FTUS43 KLSX 251506 AAB
TAFUIN
TAF AMD
KUIN 251506Z 2515/2612 22004KT P6SM BKN012 BKN040
     FM251600 29006KT P6SM VCSH BKN040
     FM252100 36005KT P6SM BKN200=

USA.gov is the U.S. government's official web portal to all federal, state and local government web resources and services.